createdAt,value
2018-09-26T00:01:29.118Z,6.60
2018-09-26T00:04:02.866Z,6.60
2018-09-26T00:06:31.869Z,6.60
2018-09-26T00:09:01.057Z,6.60
2018-09-26T00:11:30.148Z,6.60
2018-09-26T00:13:59.218Z,6.60
2018-09-26T00:16:28.307Z,6.60
2018-09-26T00:18:57.391Z,6.50
2018-09-26T00:21:26.424Z,6.50
2018-09-26T00:23:55.467Z,6.50
2018-09-26T00:26:24.527Z,6.50
2018-09-26T00:28:53.519Z,6.50
2018-09-26T00:31:22.811Z,6.60
2018-09-26T00:33:51.862Z,6.60
2018-09-26T00:36:21.001Z,6.60
2018-09-26T00:38:50.060Z,6.60
2018-09-26T00:41:19.210Z,6.60
2018-09-26T00:43:48.662Z,6.70
2018-09-26T00:46:17.936Z,6.80
2018-09-26T00:48:47.252Z,6.80
2018-09-26T00:51:16.422Z,6.80
2018-09-26T00:53:45.598Z,6.90
2018-09-26T00:56:14.738Z,6.90
2018-09-26T00:58:44.074Z,7.00
2018-09-26T01:01:13.283Z,6.90
2018-09-26T01:03:42.447Z,7.00
2018-09-26T01:06:11.878Z,7.00
2018-09-26T01:08:41.049Z,7.00
2018-09-26T01:11:10.267Z,7.00
2018-09-26T01:13:39.635Z,7.10
2018-09-26T01:16:08.912Z,7.10
2018-09-26T01:18:38.116Z,7.10
2018-09-26T01:21:07.579Z,7.00
2018-09-26T01:23:37.051Z,7.00
2018-09-26T01:26:06.206Z,7.00
2018-09-26T01:28:35.583Z,6.90
2018-09-26T01:31:04.954Z,6.90
2018-09-26T01:33:34.326Z,6.90
2018-09-26T01:36:03.627Z,6.80
2018-09-26T01:38:32.741Z,6.80
2018-09-26T01:41:01.967Z,6.80
2018-09-26T01:43:31.211Z,6.70
2018-09-26T01:46:00.436Z,6.70
2018-09-26T01:48:29.717Z,6.70
2018-09-26T01:50:59.036Z,6.60
2018-09-26T01:53:28.276Z,6.60
2018-09-26T01:55:57.502Z,6.60
2018-09-26T01:58:26.776Z,6.50
2018-09-26T02:00:55.968Z,6.50
2018-09-26T02:03:25.363Z,6.50
2018-09-26T02:05:54.702Z,6.50
2018-09-26T02:08:24.181Z,6.50
2018-09-26T02:10:53.618Z,6.50
2018-09-26T02:13:22.958Z,6.40
2018-09-26T02:15:52.270Z,6.40
2018-09-26T02:18:21.814Z,6.40
2018-09-26T02:20:51.246Z,6.40
2018-09-26T02:23:20.485Z,6.40
2018-09-26T02:25:49.632Z,6.50
2018-09-26T02:28:25.566Z,6.50
2018-09-26T02:30:54.940Z,6.40
2018-09-26T02:33:24.047Z,6.40
2018-09-26T02:35:53.114Z,6.30
2018-09-26T02:38:22.155Z,6.30
2018-09-26T02:40:51.246Z,6.30
2018-09-26T02:43:20.278Z,6.20
2018-09-26T02:45:49.397Z,6.10
2018-09-26T02:48:23.737Z,6.10
2018-09-26T02:50:53.102Z,6.00
2018-09-26T02:53:22.501Z,6.00
2018-09-26T02:55:52.076Z,5.90
2018-09-26T02:58:21.300Z,5.90
2018-09-26T03:00:50.538Z,5.90
2018-09-26T03:03:19.791Z,5.80
2018-09-26T03:05:49.093Z,5.80
2018-09-26T03:08:18.242Z,5.70
2018-09-26T03:10:47.489Z,5.70
2018-09-26T03:13:16.637Z,5.70
2018-09-26T03:15:46.028Z,5.70
2018-09-26T03:18:15.531Z,5.60
2018-09-26T03:20:45.280Z,5.60
2018-09-26T03:23:14.396Z,5.60
2018-09-26T03:25:43.659Z,5.60
2018-09-26T03:28:12.965Z,5.50
2018-09-26T03:30:42.404Z,5.50
2018-09-26T03:33:11.694Z,5.50
2018-09-26T03:35:41.018Z,5.50
2018-09-26T03:38:10.265Z,5.60
2018-09-26T03:40:39.379Z,5.70
2018-09-26T03:43:08.943Z,5.70
2018-09-26T03:45:38.210Z,5.80
2018-09-26T03:48:07.594Z,5.80
2018-09-26T03:50:36.886Z,5.80
2018-09-26T03:53:06.573Z,5.80
2018-09-26T03:55:35.808Z,5.70
2018-09-26T03:58:04.970Z,5.70
2018-09-26T04:00:34.187Z,5.70
2018-09-26T04:03:03.342Z,5.70
2018-09-26T04:05:32.664Z,5.70
2018-09-26T04:08:01.794Z,5.60
2018-09-26T04:10:31.066Z,5.60
2018-09-26T04:13:00.372Z,5.60
2018-09-26T04:15:29.533Z,5.60
2018-09-26T04:17:58.790Z,5.60
2018-09-26T04:20:28.204Z,5.50
2018-09-26T04:22:57.575Z,5.50
2018-09-26T04:25:27.003Z,5.50
2018-09-26T04:27:56.284Z,5.50
2018-09-26T04:30:25.527Z,5.60
2018-09-26T04:32:55.032Z,5.60
2018-09-26T04:35:23.299Z,5.70
2018-09-26T04:37:51.682Z,5.80
2018-09-26T04:40:20.713Z,5.90
2018-09-26T04:42:49.988Z,5.90
2018-09-26T04:45:19.166Z,5.90
2018-09-26T04:47:48.446Z,6.00
2018-09-26T04:50:17.740Z,6.00
2018-09-26T04:52:47.090Z,6.00
2018-09-26T04:55:16.431Z,6.10
2018-09-26T04:57:46.123Z,6.10
2018-09-26T05:00:15.918Z,6.10
2018-09-26T05:02:45.228Z,6.00
2018-09-26T05:05:14.379Z,6.00
2018-09-26T05:07:43.449Z,6.00
2018-09-26T05:10:12.569Z,6.00
2018-09-26T05:12:41.610Z,6.00
2018-09-26T05:15:10.609Z,6.00
2018-09-26T05:17:39.607Z,6.00
2018-09-26T05:20:08.614Z,6.00
2018-09-26T05:22:37.629Z,6.10
2018-09-26T05:25:06.896Z,6.10
2018-09-26T05:27:36.175Z,6.10
2018-09-26T05:30:05.323Z,6.10
2018-09-26T05:32:34.458Z,6.10
2018-09-26T05:35:03.459Z,6.20
2018-09-26T05:37:32.578Z,6.20
2018-09-26T05:40:01.879Z,6.20
2018-09-26T05:42:31.094Z,6.30
2018-09-26T05:45:00.303Z,6.30
2018-09-26T05:47:30.335Z,6.40
2018-09-26T05:49:59.565Z,6.50
2018-09-26T05:52:28.930Z,6.70
2018-09-26T05:54:58.136Z,6.80
2018-09-26T05:57:27.252Z,7.00
2018-09-26T05:59:56.448Z,7.20
2018-09-26T06:02:26.341Z,7.40
2018-09-26T06:04:55.481Z,7.60
2018-09-26T06:07:24.619Z,7.80
2018-09-26T06:09:53.910Z,8.00
2018-09-26T06:12:23.218Z,8.20
2018-09-26T06:14:52.659Z,8.50
2018-09-26T06:17:22.147Z,8.60
2018-09-26T06:19:51.501Z,8.80
2018-09-26T06:22:20.838Z,9.00
2018-09-26T06:24:50.091Z,9.20
2018-09-26T06:27:19.430Z,9.40
2018-09-26T06:29:48.591Z,9.50
2018-09-26T06:32:17.812Z,9.60
2018-09-26T06:34:47.142Z,9.70
2018-09-26T06:37:17.244Z,9.80
2018-09-26T06:39:47.010Z,10.00
2018-09-26T06:42:16.123Z,10.00
2018-09-26T06:44:45.459Z,10.10
2018-09-26T06:47:14.676Z,10.10
2018-09-26T06:49:43.810Z,10.20
2018-09-26T06:52:12.995Z,10.30
2018-09-26T06:54:42.298Z,10.40
2018-09-26T06:57:11.513Z,10.50
2018-09-26T06:59:41.064Z,10.70
2018-09-26T07:02:10.596Z,10.80
2018-09-26T07:04:39.937Z,10.90
2018-09-26T07:07:09.171Z,11.10
2018-09-26T07:09:38.794Z,11.20
2018-09-26T07:12:08.618Z,11.40
2018-09-26T07:14:37.800Z,11.50
2018-09-26T07:17:07.085Z,11.40
2018-09-26T07:19:36.586Z,11.60
2018-09-26T07:22:05.764Z,11.70
2018-09-26T07:24:35.430Z,11.90
2018-09-26T07:27:04.716Z,12.00
2018-09-26T07:29:33.955Z,12.40
2018-09-26T07:32:03.134Z,12.60
2018-09-26T07:34:37.604Z,12.40
2018-09-26T07:37:07.050Z,12.30
2018-09-26T07:39:36.913Z,12.30
2018-09-26T07:42:06.402Z,12.30
2018-09-26T07:44:36.010Z,12.40
2018-09-26T07:47:05.386Z,12.40
2018-09-26T07:49:34.637Z,12.60
2018-09-26T07:52:04.222Z,12.80
2018-09-26T07:54:33.362Z,13.10
2018-09-26T07:57:02.550Z,13.20
2018-09-26T07:59:31.948Z,13.50
2018-09-26T08:02:01.231Z,13.70
2018-09-26T08:04:30.414Z,13.80
2018-09-26T08:06:59.660Z,14.40
2018-09-26T08:09:29.152Z,14.40
2018-09-26T08:11:58.411Z,14.60
2018-09-26T08:14:27.740Z,15.00
2018-09-26T08:16:57.214Z,15.30
2018-09-26T08:19:26.471Z,15.30
2018-09-26T08:21:55.804Z,15.40
2018-09-26T08:24:26.069Z,15.70
2018-09-26T08:26:55.239Z,15.90
2018-09-26T08:29:24.343Z,15.90
2018-09-26T08:31:53.298Z,16.50
2018-09-26T08:34:23.479Z,17.20
2018-09-26T08:36:51.931Z,17.30
2018-09-26T08:39:20.450Z,17.20
2018-09-26T08:41:49.299Z,17.20
2018-09-26T08:44:17.534Z,17.30
2018-09-26T08:46:46.656Z,17.40
2018-09-26T08:49:15.992Z,17.50
2018-09-26T08:51:44.365Z,17.10
2018-09-26T08:54:12.974Z,17.10
2018-09-26T08:56:41.754Z,16.90
2018-09-26T08:59:09.918Z,17.00
2018-09-26T09:01:45.840Z,17.10
2018-09-26T09:04:14.728Z,16.90
2018-09-26T09:06:43.465Z,16.70
2018-09-26T09:09:11.854Z,16.50
2018-09-26T09:11:40.431Z,16.20
2018-09-26T09:14:08.969Z,15.90
2018-09-26T09:16:37.219Z,16.00
2018-09-26T09:19:05.632Z,16.20
2018-09-26T09:21:35.089Z,16.30
2018-09-26T09:24:03.306Z,16.40
2018-09-26T09:26:31.604Z,16.70
2018-09-26T09:28:59.811Z,17.20
2018-09-26T09:31:29.409Z,17.00
2018-09-26T09:33:57.810Z,17.20
2018-09-26T09:36:26.131Z,17.00
2018-09-26T09:38:55.597Z,17.20
2018-09-26T09:41:25.024Z,17.30
2018-09-26T09:43:54.485Z,17.40
2018-09-26T09:46:24.138Z,17.50
2018-09-26T09:48:54.666Z,17.50
2018-09-26T09:51:23.992Z,17.50
2018-09-26T09:53:53.250Z,17.60
2018-09-26T09:56:22.583Z,17.60
2018-09-26T09:58:52.654Z,17.90
2018-09-26T10:01:27.978Z,18.20
2018-09-26T10:03:58.556Z,18.20
2018-09-26T10:06:28.185Z,18.50
2018-09-26T10:08:57.672Z,17.90
2018-09-26T10:11:26.975Z,18.00
2018-09-26T10:13:56.570Z,18.00
2018-09-26T10:16:25.847Z,17.70
2018-09-26T10:18:55.328Z,17.90
2018-09-26T10:21:24.666Z,18.40
2018-09-26T10:23:53.917Z,18.30
2018-09-26T10:26:23.311Z,18.20
2018-09-26T10:28:52.847Z,17.80
2018-09-26T10:31:21.970Z,17.70
2018-09-26T10:33:51.159Z,17.50
2018-09-26T10:36:21.031Z,17.30
2018-09-26T10:38:50.286Z,17.20
2018-09-26T10:41:19.343Z,17.20
2018-09-26T10:43:48.935Z,17.00
2018-09-26T10:46:18.146Z,17.00
2018-09-26T10:48:47.259Z,16.80
2018-09-26T10:51:16.701Z,16.80
2018-09-26T10:53:45.832Z,16.80
2018-09-26T10:56:15.310Z,16.70
2018-09-26T10:58:44.459Z,16.60
2018-09-26T11:01:13.721Z,16.50
2018-09-26T11:03:43.096Z,16.60
2018-09-26T11:06:12.245Z,16.80
2018-09-26T11:08:41.222Z,17.10
2018-09-26T11:11:10.347Z,17.30
2018-09-26T11:13:39.646Z,17.70
2018-09-26T11:16:09.376Z,17.90
2018-09-26T11:18:38.481Z,17.60
2018-09-26T11:21:07.676Z,17.40
2018-09-26T11:23:36.975Z,17.20
2018-09-26T11:26:06.301Z,17.30
2018-09-26T11:28:36.154Z,17.60
2018-09-26T11:31:05.273Z,17.90
2018-09-26T11:33:34.379Z,18.30
2018-09-26T11:36:03.629Z,18.50
2018-09-26T11:38:32.719Z,18.50
2018-09-26T11:41:01.884Z,18.90
2018-09-26T11:43:31.014Z,18.90
2018-09-26T11:46:01.267Z,18.60
2018-09-26T11:48:30.629Z,18.90
2018-09-26T11:50:59.868Z,18.90
2018-09-26T11:53:29.347Z,18.90
2018-09-26T11:55:58.581Z,19.30
2018-09-26T11:58:27.891Z,19.30
2018-09-26T12:00:57.071Z,19.50
2018-09-26T12:03:26.226Z,19.30
2018-09-26T12:05:54.497Z,19.60
2018-09-26T12:08:22.843Z,19.40
2018-09-26T12:10:51.771Z,19.50
2018-09-26T12:13:20.434Z,19.90
2018-09-26T12:15:48.907Z,19.80
2018-09-26T12:18:17.540Z,19.50
2018-09-26T12:20:45.737Z,19.40
2018-09-26T12:23:14.035Z,19.30
2018-09-26T12:25:43.100Z,19.40
2018-09-26T12:28:12.322Z,19.40
2018-09-26T12:30:41.422Z,19.10
2018-09-26T12:33:10.526Z,19.10
2018-09-26T12:35:38.846Z,19.10
2018-09-26T12:38:07.980Z,18.80
2018-09-26T12:40:37.239Z,18.70
2018-09-26T12:43:06.622Z,18.60
2018-09-26T12:45:35.978Z,18.60
2018-09-26T12:48:05.312Z,18.80
2018-09-26T12:50:34.499Z,18.80
2018-09-26T12:53:04.160Z,18.90
2018-09-26T12:55:33.593Z,19.20
2018-09-26T12:58:02.082Z,19.30
2018-09-26T13:00:32.042Z,18.90
2018-09-26T13:03:01.305Z,18.70
2018-09-26T13:05:30.605Z,18.40
2018-09-26T13:07:59.212Z,18.20
2018-09-26T13:10:27.794Z,18.20
2018-09-26T13:12:56.258Z,18.30
2018-09-26T13:15:24.821Z,18.60
2018-09-26T13:17:53.190Z,18.90
2018-09-26T13:20:21.503Z,19.10
2018-09-26T13:22:50.622Z,19.00
2018-09-26T13:25:19.870Z,19.00
2018-09-26T13:27:48.260Z,19.10
2018-09-26T13:30:16.688Z,19.20
2018-09-26T13:32:45.074Z,19.20
2018-09-26T13:35:13.450Z,19.20
2018-09-26T13:37:42.711Z,19.20
2018-09-26T13:40:12.075Z,19.10
2018-09-26T13:42:40.468Z,19.00
2018-09-26T13:45:09.713Z,19.00
2018-09-26T13:47:38.865Z,18.80
2018-09-26T13:50:07.357Z,18.80
2018-09-26T13:52:36.628Z,18.70
2018-09-26T13:55:05.932Z,18.70
2018-09-26T13:57:35.156Z,18.70
2018-09-26T14:00:04.407Z,18.70
2018-09-26T14:02:33.780Z,18.70
2018-09-26T14:05:03.192Z,18.70
2018-09-26T14:07:32.320Z,18.70
2018-09-26T14:10:01.563Z,18.70
2018-09-26T14:12:30.759Z,18.80
2018-09-26T14:15:00.195Z,18.70
2018-09-26T14:17:29.379Z,18.70
2018-09-26T14:19:58.642Z,18.70
2018-09-26T14:22:27.992Z,18.70
2018-09-26T14:24:57.322Z,18.70
2018-09-26T14:27:26.806Z,18.70
2018-09-26T14:29:56.419Z,18.70
2018-09-26T14:32:25.668Z,18.70
2018-09-26T14:34:54.901Z,18.50
2018-09-26T14:37:24.284Z,18.50
2018-09-26T14:39:53.744Z,18.40
2018-09-26T14:42:23.058Z,18.40
2018-09-26T14:44:52.447Z,18.40
2018-09-26T14:47:21.817Z,18.40
2018-09-26T14:49:51.320Z,18.40
2018-09-26T14:52:20.677Z,18.50
2018-09-26T14:54:50.019Z,18.50
2018-09-26T14:57:19.315Z,18.50
2018-09-26T14:59:49.838Z,18.50
2018-09-26T15:02:19.141Z,18.40
2018-09-26T15:04:48.496Z,18.30
2018-09-26T15:07:17.906Z,18.30
2018-09-26T15:09:47.949Z,18.30
2018-09-26T15:12:18.030Z,18.30
2018-09-26T15:14:47.211Z,18.30
2018-09-26T15:17:16.564Z,18.20
2018-09-26T15:19:46.560Z,18.20
2018-09-26T15:22:15.846Z,18.20
2018-09-26T15:24:45.376Z,18.20
2018-09-26T15:27:14.579Z,18.10
2018-09-26T15:29:43.937Z,18.00
2018-09-26T15:32:13.228Z,18.00
2018-09-26T15:34:42.540Z,17.90
2018-09-26T15:37:12.364Z,17.90
2018-09-26T15:39:41.559Z,17.80
2018-09-26T15:42:10.730Z,17.70
2018-09-26T15:44:39.956Z,17.60
2018-09-26T15:47:09.431Z,17.50
2018-09-26T15:49:38.638Z,17.50
2018-09-26T15:52:07.826Z,17.50
2018-09-26T15:54:37.047Z,17.50
2018-09-26T15:57:06.249Z,17.40
2018-09-26T15:59:35.374Z,17.40
2018-09-26T16:02:04.728Z,17.40
2018-09-26T16:04:34.388Z,17.40
2018-09-26T16:07:03.625Z,17.30
2018-09-26T16:09:32.640Z,17.30
2018-09-26T16:12:01.840Z,17.20
2018-09-26T16:14:30.987Z,17.10
2018-09-26T16:17:00.304Z,17.10
2018-09-26T16:19:28.765Z,17.00
2018-09-26T16:21:58.152Z,17.00
2018-09-26T16:24:27.767Z,16.90
2018-09-26T16:29:38.745Z,16.80
2018-09-26T16:32:07.223Z,16.70
2018-09-26T16:34:36.242Z,16.70
2018-09-26T16:37:04.600Z,16.60
2018-09-26T16:39:33.889Z,16.50
2018-09-26T16:42:02.443Z,16.40
2018-09-26T16:44:30.971Z,16.30
2018-09-26T16:47:00.351Z,16.20
2018-09-26T16:49:29.707Z,16.10
2018-09-26T16:51:58.088Z,16.00
2018-09-26T16:54:26.827Z,16.00
2018-09-26T16:56:56.172Z,15.90
2018-09-26T16:59:25.533Z,15.80
2018-09-26T17:01:54.387Z,15.70
2018-09-26T17:04:23.110Z,15.60
2018-09-26T17:06:52.671Z,15.50
2018-09-26T17:09:22.327Z,15.40
2018-09-26T17:11:51.525Z,15.30
2018-09-26T17:14:19.883Z,15.20
2018-09-26T17:16:49.148Z,15.10
2018-09-26T17:19:18.433Z,15.00
2018-09-26T17:21:46.917Z,14.90
2018-09-26T17:24:16.272Z,14.80
2018-09-26T17:26:46.267Z,14.70
2018-09-26T17:29:15.416Z,14.60
2018-09-26T17:31:44.624Z,14.60
2018-09-26T17:34:13.890Z,14.50
2018-09-26T17:36:43.006Z,14.50
2018-09-26T17:39:12.072Z,14.50
2018-09-26T17:41:41.192Z,14.50
2018-09-26T17:44:10.378Z,14.50
2018-09-26T17:46:39.717Z,14.40
2018-09-26T17:49:09.004Z,14.30
2018-09-26T17:51:38.097Z,14.30
2018-09-26T17:54:06.337Z,14.30
2018-09-26T17:56:34.805Z,14.30
2018-09-26T17:59:03.330Z,14.20
2018-09-26T18:01:31.961Z,14.10
2018-09-26T18:04:00.221Z,14.10
2018-09-26T18:06:28.896Z,14.10
2018-09-26T18:08:57.154Z,14.10
2018-09-26T18:11:25.326Z,14.10
2018-09-26T18:13:54.029Z,14.10
2018-09-26T18:16:22.275Z,14.10
2018-09-26T18:18:51.922Z,14.10
2018-09-26T18:21:20.386Z,14.00
2018-09-26T18:23:48.966Z,14.00
2018-09-26T18:26:17.554Z,13.90
2018-09-26T18:28:46.129Z,13.90
2018-09-26T18:31:15.378Z,13.90
2018-09-26T18:33:43.558Z,13.90
2018-09-26T18:36:11.780Z,13.80
2018-09-26T18:38:39.984Z,13.90
2018-09-26T18:41:08.153Z,13.80
2018-09-26T18:43:36.729Z,13.80
2018-09-26T18:46:05.548Z,13.70
2018-09-26T18:48:34.215Z,13.60
2018-09-26T18:51:02.669Z,13.50
2018-09-26T18:53:30.990Z,13.50
2018-09-26T18:56:00.080Z,13.40
2018-09-26T18:58:29.527Z,13.40
2018-09-26T19:00:58.694Z,13.30
2018-09-26T19:03:27.962Z,13.30
2018-09-26T19:05:57.081Z,13.30
2018-09-26T19:08:26.179Z,13.20
2018-09-26T19:10:55.728Z,13.20
2018-09-26T19:13:24.811Z,13.10
2018-09-26T19:15:53.963Z,13.00
2018-09-26T19:18:23.099Z,13.00
2018-09-26T19:20:53.229Z,13.00
2018-09-26T19:23:22.559Z,12.90
2018-09-26T19:25:51.793Z,12.90
2018-09-26T19:28:21.463Z,12.90
2018-09-26T19:30:52.253Z,12.90
2018-09-26T19:33:22.059Z,12.80
2018-09-26T19:48:50.848Z,12.80
2018-09-26T19:51:21.169Z,12.80
2018-09-26T19:53:50.545Z,12.50
2018-09-26T19:56:20.195Z,12.50
2018-09-26T20:01:22.414Z,12.60
2018-09-26T20:03:51.749Z,12.50
2018-09-26T20:06:20.990Z,12.50
2018-09-26T20:08:50.352Z,12.60
2018-09-26T20:11:19.628Z,12.60
2018-09-26T20:13:48.922Z,12.70
2018-09-26T20:16:18.293Z,12.60
2018-09-26T20:18:47.450Z,12.60
2018-09-26T20:21:16.684Z,12.60
2018-09-26T20:23:46.275Z,12.70
2018-09-26T20:26:15.544Z,12.70
2018-09-26T20:28:44.761Z,12.80
2018-09-26T20:31:14.225Z,12.80
2018-09-26T20:33:43.425Z,13.10
2018-09-26T20:36:12.890Z,12.80
2018-09-26T20:38:42.400Z,12.70
2018-09-26T20:41:11.743Z,12.70
2018-09-26T20:43:41.405Z,12.70
2018-09-26T20:46:11.371Z,12.70
2018-09-26T20:48:40.790Z,12.70
2018-09-26T20:51:10.233Z,12.70
2018-09-26T20:53:39.551Z,12.70
2018-09-26T20:56:08.902Z,12.70
2018-09-26T20:58:38.488Z,12.70
2018-09-26T21:01:08.014Z,12.70
2018-09-26T21:03:37.443Z,12.60
2018-09-26T21:06:07.097Z,12.60
2018-09-26T21:08:36.767Z,12.60
2018-09-26T21:11:06.195Z,12.50
2018-09-26T21:13:35.619Z,12.50
2018-09-26T21:16:05.012Z,12.50
2018-09-26T21:18:34.478Z,12.40
2018-09-26T21:21:03.845Z,12.40
2018-09-26T21:23:33.042Z,12.40
2018-09-26T21:26:02.229Z,12.40
2018-09-26T21:28:31.470Z,12.40
2018-09-26T21:31:00.692Z,12.40
2018-09-26T21:33:30.078Z,12.40
2018-09-26T21:35:59.284Z,12.40
2018-09-26T21:38:28.575Z,12.40
2018-09-26T21:40:57.880Z,12.40
2018-09-26T21:43:27.236Z,12.40
2018-09-26T21:45:56.508Z,12.40
2018-09-26T21:48:25.906Z,12.40
2018-09-26T21:50:55.256Z,12.40
2018-09-26T21:53:24.579Z,12.40
2018-09-26T21:55:54.054Z,12.40
2018-09-26T21:58:23.271Z,12.40
2018-09-26T22:00:57.854Z,12.30
2018-09-26T22:03:27.456Z,12.40
2018-09-26T22:05:57.049Z,12.40
2018-09-26T22:08:26.761Z,12.30
2018-09-26T22:10:56.232Z,12.30
2018-09-26T22:13:25.950Z,12.30
2018-09-26T22:15:55.351Z,12.30
2018-09-26T22:18:24.817Z,12.30
2018-09-26T22:20:54.809Z,12.30
2018-09-26T22:23:24.421Z,12.30
2018-09-26T22:25:53.693Z,12.30
2018-09-26T22:28:23.116Z,12.30
2018-09-26T22:30:54.141Z,12.30
2018-09-26T22:33:23.490Z,12.20
2018-09-26T22:35:52.723Z,12.20
2018-09-26T22:38:22.057Z,12.20
2018-09-26T22:40:51.399Z,12.20
2018-09-26T22:43:20.671Z,12.20
2018-09-26T22:45:49.940Z,12.20
2018-09-26T22:48:19.340Z,12.10
2018-09-26T22:50:48.572Z,12.20
2018-09-26T22:53:17.838Z,12.20
2018-09-26T22:55:47.049Z,12.10
2018-09-26T22:58:16.359Z,12.20
2018-09-26T23:00:45.772Z,12.10
2018-09-26T23:03:15.145Z,12.10
2018-09-26T23:05:44.461Z,12.10
2018-09-26T23:08:14.310Z,12.10
2018-09-26T23:10:43.623Z,12.10
2018-09-26T23:13:12.854Z,12.10
2018-09-26T23:15:42.226Z,12.00
2018-09-26T23:18:11.499Z,12.00
2018-09-26T23:20:40.835Z,12.00
2018-09-26T23:23:10.203Z,12.00
2018-09-26T23:25:39.581Z,12.00
2018-09-26T23:28:08.962Z,12.00
2018-09-26T23:30:38.192Z,12.00
2018-09-26T23:33:07.528Z,12.00
2018-09-26T23:35:36.840Z,11.90
2018-09-26T23:38:06.170Z,11.90
2018-09-26T23:40:35.457Z,11.80
2018-09-26T23:43:04.835Z,11.90
2018-09-26T23:45:34.175Z,11.80
2018-09-26T23:48:03.584Z,11.80
2018-09-26T23:50:32.941Z,11.80
2018-09-26T23:53:02.293Z,11.70
2018-09-26T23:55:31.554Z,11.80
2018-09-26T23:58:00.892Z,11.70
